• Join FlightAware (Why Join?)
  • Login
  • US Flag 
03:59AM EDT


 

Airport Tracker/Info


-or-


 

Live Flight TrackerFlight Track Log ✈ C-FTOH ✈ 13-Apr-2013 ✈ CYQB - MUVR / VRA

Flight Track Log - Related Links

Times and Time Zones

All times are in EDT time to prevent confusion due to time zone crossing. See the C-FTOH flight status page for this flight to view local times or setup timezone preferences in your user account.

Time Position Orientation Groundspeed Altitude Reporting Facility
EDT Latitude Longitude Course Direction KTS MPH feet Rate Location/Type
12:58AM 46.8020 -71.3790 42° Northeast 156 180 1,100  Level FlightAware
12:58AM 46.8070 -71.3720 44° Northeast 146 168 1,700 1,800 Climbing FlightAware
12:59AM 46.8250 -71.3520 37° Northeast 181 208 2,300 1,260 Climbing FlightAware
12:59AM 46.8460 -71.3270 39° Northeast 201 231 3,000 1,320 Climbing FlightAware
12:59AM 46.8480 -71.3150 76° East 199 229 3,200 2,100 Climbing FlightAware
01:00AM 46.8360 -71.2810 117° Southeast 198 228 4,400 2,400 Climbing FlightAware
01:00AM 46.8270 -71.2780 167° South 203 234 4,800 1,560 Climbing FlightAware
01:00AM 46.8070 -71.2820 188° South 234 269 5,200 1,500 Climbing FlightAware
01:00AM 46.7910 -71.2870 192° South 245 282 5,700 2,220 Climbing FlightAware
01:01AM 46.7620 -71.2950 191° South 256 295 6,700 2,400 Climbing FlightAware
01:01AM 46.7500 -71.2980 190° South 262 302 7,100 2,520 Climbing FlightAware
01:02AM 46.7080 -71.3100 191° South 272 313 8,600 2,520 Climbing FlightAware
01:02AM 46.6960 -71.3130 190° South 272 313 9,000 2,160 Climbing FlightAware
01:03AM 46.6380 -71.3290 191° South 294 338 10,600 1,620 Climbing FlightAware
01:03AM 46.5820 -71.3450 191° South 338 389 11,300 1,620 Climbing FlightAware
01:04AM 46.5100 -71.3650 191° South 352 405 12,900 2,160 Climbing FlightAware
01:05AM 46.4460 -71.3820 190° South 360 414 14,400 2,220 Climbing FlightAware
01:05AM 46.3790 -71.4010 191° South 369 425 15,900 2,160 Climbing FlightAware
01:06AM 46.3030 -71.4220 191° South 375 432 17,500 2,100 Climbing FlightAware
01:07AM 46.2360 -71.4400 191° South 378 435 18,900 2,040 Climbing FlightAware
01:07AM 46.1560 -71.4540 187° South 384 442 20,400 1,860 Climbing FlightAware
01:08AM 46.0860 -71.4610 184° South 390 449 21,600 1,680 Climbing FlightAware
01:09AM 46.0140 -71.4730 187° South 390 449 22,700 1,620 Climbing FlightAware
01:09AM 45.9490 -71.5160 205° Southwest 390 449 23,800 1,740 Climbing FlightAware
01:10AM 45.8760 -71.5700 207° Southwest 391 450 25,200 1,680 Climbing FlightAware
01:11AM 45.8130 -71.6180 208° Southwest 394 453 26,200 1,260 Climbing FlightAware
01:12AM 45.7400 -71.6730 208° Southwest 403 464 27,000 1,200 Climbing FlightAware
01:12AM 45.6740 -71.7240 208° Southwest 404 465 27,900 1,440 Climbing FlightAware
01:13AM 45.6000 -71.7790 207° Southwest 399 459 29,100 1,620 Climbing FlightAware
01:14AM 45.5350 -71.8270 207° Southwest 393 452 30,200 1,740 Climbing FlightAware
01:14AM 45.4650 -71.8800 208° Southwest 379 436 31,600 1,680 Climbing FlightAware
01:15AM 45.4040 -71.9250 207° Southwest 373 429 32,600 1,320 Climbing FlightAware
01:16AM 45.3430 -71.9710 208° Southwest 368 423 33,400 900 Climbing FlightAware
01:17AM 45.2750 -72.0210 207° Southwest 372 428 33,900 660 Climbing FlightAware
01:17AM 45.2130 -72.0660 207° Southwest 376 433 34,400 600 Climbing FlightAware
01:18AM 45.1440 -72.1170 208° Southwest 381 438 34,800 480 Climbing FlightAware
01:19AM 45.0820 -72.1630 208° Southwest 383 441 35,100 480 Climbing FlightAware
01:19AM 45.0220 -72.2080 208° Southwest 384 442 35,500 600 Climbing FlightAware
01:20AM 44.9450 -72.2640 207° Southwest 379 436 36,000 300 Climbing FlightAware
01:21AM 44.8830 -72.3090 207° Southwest 371 427 36,000  Level FlightAware
01:21AM 44.8160 -72.3580 207° Southwest 370 426 36,000  Level FlightAware
01:22AM 44.7610 -72.3980 207° Southwest 372 428 36,000  Level FlightAware
01:23AM 44.6940 -72.4460 207° Southwest 373 429 36,000  Level FlightAware
01:23AM 44.6320 -72.4910 207° Southwest 377 434 36,000  Level FlightAware
01:24AM 44.5620 -72.5410 207° Southwest 378 435 36,000  Level FlightAware
01:25AM 44.4990 -72.5860 207° Southwest 379 436 36,000  Level FlightAware
01:26AM 44.4390 -72.6300 208° Southwest 378 435 36,000  Level FlightAware
01:26AM 44.3700 -72.6800 207° Southwest 376 433 36,000  Level FlightAware
01:27AM 44.3100 -72.7220 207° Southwest 375 432 36,000  Level FlightAware
01:28AM 44.2460 -72.7670 207° Southwest 374 430 36,000  Level FlightAware
01:28AM 44.1760 -72.8170 207° Southwest 372 428 36,000  Level FlightAware
01:29AM 44.1060 -72.8660 207° Southwest 372 428 36,000  Level FlightAware
01:30AM 44.0440 -72.9100 207° Southwest 371 427 36,000  Level FlightAware
01:31AM 43.9820 -72.9540 207° Southwest 372 428 36,000  Level FlightAware
01:31AM 43.9340 -72.9880 207° Southwest 376 433 36,000  Level FlightAware
01:32AM 43.8430 -73.0520 207° Southwest 380 437 36,000  Level FlightAware
01:33AM 43.7790 -73.0960 206° Southwest 381 438 36,000  Level FlightAware
01:33AM 43.7170 -73.1400 207° Southwest 381 438 36,000  Level FlightAware
01:34AM 43.6540 -73.1840 207° Southwest 380 437 36,000  Level FlightAware
01:35AM 43.5850 -73.2310 206° Southwest 377 434 36,000  Level FlightAware
01:35AM 43.5130 -73.2810 207° Southwest 376 433 36,000  Level FlightAware
01:36AM 43.4500 -73.3240 206° Southwest 374 430 36,000  Level FlightAware
01:37AM 43.3900 -73.3660 207° Southwest 373 429 36,000  Level FlightAware
01:38AM 43.3230 -73.4120 207° Southwest 372 428 36,000  Level FlightAware
01:38AM 43.2600 -73.4550 206° Southwest 373 429 36,000  Level FlightAware
01:39AM 43.1890 -73.5040 207° Southwest 380 437 36,000  Level FlightAware
01:39AM 43.1420 -73.5360 206° Southwest 381 438 36,000  Level FlightAware
01:41AM 43.0410 -73.6040 206° Southwest 382 440 36,000  Level FlightAware
01:41AM 42.9770 -73.6480 207° Southwest 383 441 36,000  Level FlightAware
01:42AM 42.9050 -73.6970 206° Southwest 382 440 36,000  Level FlightAware
01:43AM 42.8430 -73.7390 206° Southwest 379 436 36,000  Level FlightAware
01:43AM 42.7720 -73.7860 206° Southwest 377 434 36,000  Level FlightAware
01:44AM 42.7030 -73.8040 191° South 400 460 36,000  Level FlightAware
01:45AM 42.6280 -73.8060 181° South 399 459 36,000  Level FlightAware
01:45AM 42.5745 -73.8127 185° South 386 444 36,000  Level FlightAware ADS-B
01:46AM 42.5333 -73.8291 196° South 377 434 36,000  Level FlightAware ADS-B
01:46AM 42.4790 -73.8540 199° South 377 434 36,000  Level FlightAware ADS-B
01:47AM 42.4213 -73.8801 198° South 377 434 36,000  Level FlightAware ADS-B
01:47AM 42.3714 -73.9030 199° South 376 433 36,000  Level FlightAware ADS-B
01:48AM 42.3198 -73.9267 199° South 376 433 36,000  Level FlightAware ADS-B
01:48AM 42.2694 -73.9495 199° South 376 433 36,000  Level FlightAware ADS-B
01:49AM 42.2138 -73.9748 199° South 373 429 36,000  Level FlightAware ADS-B
01:49AM 42.1635 -73.9977 199° South 372 428 36,000  Level FlightAware ADS-B
01:50AM 42.1094 -74.0222 199° South 371 427 36,000  Level FlightAware ADS-B
01:50AM 42.0605 -74.0443 199° South 369 425 36,000  Level FlightAware ADS-B
01:51AM 42.0109 -74.0666 198° South 368 423 36,000  Level FlightAware ADS-B
01:51AM 41.9618 -74.0887 199° South 367 422 36,000  Level FlightAware ADS-B
01:52AM 41.9137 -74.1103 198° South 365 420 36,000  Level FlightAware ADS-B
01:52AM 41.8656 -74.1321 199° South 364 419 36,000  Level FlightAware ADS-B
01:53AM 41.8166 -74.1540 198° South 364 419 36,000  Level FlightAware ADS-B
01:53AM 41.7713 -74.1741 198° South 364 419 36,000  Level FlightAware ADS-B
01:54AM 41.7241 -74.1955 199° South 362 417 36,000  Level FlightAware ADS-B
01:54AM 41.6764 -74.2167 198° South 362 417 36,000  Level FlightAware ADS-B
01:55AM 41.6289 -74.2380 199° South 361 415 36,000  Level FlightAware ADS-B
01:55AM 41.5808 -74.2593 198° South 361 415 36,000  Level FlightAware ADS-B
01:56AM 41.5327 -74.2806 198° South 363 418 36,000  Level FlightAware ADS-B
01:56AM 41.4845 -74.3019 198° South 363 418 36,000  Level FlightAware ADS-B
01:57AM 41.4361 -74.3236 199° South 363 418 36,000  Level FlightAware ADS-B
01:57AM 41.3879 -74.3449 198° South 363 418 36,000  Level FlightAware ADS-B
01:58AM 41.3400 -74.3661 198° South 365 420 36,000  Level FlightAware ADS-B
01:58AM 41.2916 -74.3870 198° South 365 420 36,000  Level FlightAware ADS-B
01:59AM 41.2427 -74.4084 198° South 366 421 36,000  Level FlightAware ADS-B
01:59AM 41.1941 -74.4302 199° South 366 421 36,000  Level FlightAware ADS-B
02:00AM 41.1431 -74.4527 198° South 368 423 36,000  Level FlightAware ADS-B
02:00AM 41.0946 -74.4739 198° South 368 423 36,000  Level FlightAware ADS-B
02:01AM 41.0456 -74.4952 198° South 368 423 36,000  Level FlightAware ADS-B
02:01AM 40.9954 -74.5170 198° South 371 427 36,000  Level FlightAware ADS-B
02:02AM 40.9458 -74.5386 198° South 371 427 36,000  Level FlightAware ADS-B
02:02AM 40.8967 -74.5601 198° South 370 426 36,000  Level FlightAware ADS-B
02:03AM 40.8467 -74.5819 198° South 370 426 36,000  Level FlightAware ADS-B
02:04AM 40.7902 -74.6063 198° South 367 422 36,000  Level FlightAware ADS-B
02:04AM 40.7394 -74.6284 198° South 367 422 36,000  Level FlightAware ADS-B
02:05AM 40.6894 -74.6502 198° South 367 422 36,000  Level FlightAware ADS-B
02:05AM 40.6409 -74.6710 198° South 367 422 36,000  Level FlightAware ADS-B
02:06AM 40.5927 -74.6917 198° South 365 420 36,000  Level FlightAware ADS-B
02:06AM 40.5433 -74.7130 198° South 365 420 36,000  Level FlightAware ADS-B
02:07AM 40.4918 -74.7352 198° South 365 420 36,000  Level FlightAware ADS-B
02:07AM 40.4434 -74.7559 198° South 366 421 36,000  Level FlightAware ADS-B
02:08AM 40.3948 -74.7768 198° South 366 421 36,000  Level FlightAware ADS-B
02:08AM 40.3745 -74.7860 199° South 364 419 36,000  Level FlightAware ADS-B
02:08AM 40.3260 -74.8110 201° Southwest 363 418 36,000  Level FlightAware ADS-B
02:09AM 40.2786 -74.8352 201° Southwest 363 418 36,000  Level FlightAware ADS-B
02:09AM 40.2305 -74.8592 201° Southwest 363 418 36,000  Level FlightAware ADS-B
02:10AM 40.1821 -74.8831 201° Southwest 362 417 36,000  Level FlightAware ADS-B
02:10AM 40.1347 -74.9064 201° Southwest 362 417 36,000  Level FlightAware ADS-B
02:11AM 40.0880 -74.9300 201° Southwest 360 414 36,000  Level FlightAware
02:11AM 40.0849 -74.9310 194° South 361 415 36,000  Level FlightAware ADS-B
02:11AM 40.0372 -74.9545 201° Southwest 363 418 36,000  Level FlightAware ADS-B
02:12AM 39.9893 -74.9783 201° Southwest 361 415 36,000  Level FlightAware ADS-B
02:12AM 39.9421 -75.0018 201° Southwest 360 414 36,000  Level FlightAware ADS-B
02:13AM 39.8913 -75.0267 201° Southwest 358 412 36,000  Level FlightAware ADS-B
02:14AM 39.8429 -75.0505 201° Southwest 355 409 36,000  Level FlightAware ADS-B
02:14AM 39.7922 -75.0754 201° Southwest 356 410 36,000  Level FlightAware ADS-B
02:15AM 39.7453 -75.0982 200° South 355 409 36,000  Level FlightAware ADS-B
02:15AM 39.7000 -75.1200 200° South 355 409 36,000  Level FlightAware
02:15AM 39.6935 -75.1236 203° Southwest 355 409 36,000  Level FlightAware ADS-B
02:16AM 39.6470 -75.1464 201° Southwest 355 409 36,000  Level FlightAware ADS-B
02:16AM 39.6007 -75.1691 201° Southwest 355 409 36,000  Level FlightAware ADS-B
02:17AM 39.5531 -75.1923 201° Southwest 355 409 36,000  Level FlightAware ADS-B
02:17AM 39.5067 -75.2148 201° Southwest 354 407 36,000  Level FlightAware ADS-B
02:18AM 39.4600 -75.2375 201° Southwest 356 410 36,000  Level FlightAware ADS-B
02:18AM 39.4132 -75.2601 200° South 356 410 36,000  Level FlightAware ADS-B
02:19AM 39.3672 -75.2824 201° Southwest 356 410 36,000  Level FlightAware ADS-B
02:19AM 39.3210 -75.3050 201° Southwest 356 410 36,000  Level FlightAware ADS-B
02:20AM 39.2686 -75.3303 200° South 357 411 36,000  Level FlightAware ADS-B
02:20AM 39.2217 -75.3530 201° Southwest 358 412 36,000  Level FlightAware ADS-B
02:21AM 39.1695 -75.3782 201° Southwest 361 415 36,000  Level FlightAware ADS-B
02:21AM 39.1219 -75.4011 200° South 363 418 36,000  Level FlightAware ADS-B
02:22AM 39.0739 -75.4240 200° South 365 420 36,000  Level FlightAware ADS-B
02:22AM 39.0262 -75.4469 200° South 365 420 36,000  Level FlightAware ADS-B
02:23AM 38.9785 -75.4697 200° South 366 421 36,000  Level FlightAware ADS-B
02:23AM 38.9310 -75.4923 200° South 363 418 36,000  Level FlightAware ADS-B
02:24AM 38.8836 -75.5150 200° South 360 414 36,000  Level FlightAware ADS-B
02:24AM 38.8346 -75.5383 200° South 361 415 36,000  Level FlightAware ADS-B
02:25AM 38.7868 -75.5611 200° South 362 417 36,000  Level FlightAware ADS-B
02:25AM 38.7393 -75.5837 200° South 361 415 36,000  Level FlightAware ADS-B
02:26AM 38.6903 -75.6071 200° South 361 415 36,000  Level FlightAware ADS-B
02:26AM 38.6430 -75.6295 200° South 361 415 36,000  Level FlightAware ADS-B
02:27AM 38.5952 -75.6522 200° South 361 415 36,000  Level FlightAware ADS-B
02:27AM 38.5480 -75.6744 200° South 359 413 36,000  Level FlightAware ADS-B
02:28AM 38.5014 -75.6965 200° South 358 412 36,000  Level FlightAware ADS-B
02:28AM 38.4535 -75.7193 200° South 359 413 36,000  Level FlightAware ADS-B
02:29AM 38.4066 -75.7412 200° South 362 417 36,000  Level FlightAware ADS-B
02:29AM 38.3584 -75.7637 200° South 362 417 36,000  Level FlightAware ADS-B
02:30AM 38.3106 -75.7863 200° South 364 419 36,000  Level FlightAware ADS-B
02:30AM 38.2630 -75.8085 200° South 365 420 36,000  Level FlightAware ADS-B
02:31AM 38.2152 -75.8309 200° South 367 422 36,000  Level FlightAware ADS-B
02:31AM 38.1671 -75.8535 200° South 368 423 36,000  Level FlightAware ADS-B
02:32AM 38.1187 -75.8761 200° South 368 423 36,000  Level FlightAware ADS-B
02:33AM 38.0610 -75.9030 200° South 369 425 36,000  Level FlightAware
02:33AM 38.0023 -75.9304 200° South 369 425 36,000  Level FlightAware ADS-B
02:34AM 37.9533 -75.9531 200° South 370 426 36,000  Level FlightAware ADS-B
02:34AM 37.9044 -75.9756 200° South 370 426 36,000  Level FlightAware ADS-B
02:35AM 37.8580 -75.9970 200° South 369 425 36,000  Level FlightAware ADS-B
02:35AM 37.8086 -76.0199 200° South 367 422 36,000  Level FlightAware ADS-B
02:36AM 37.7618 -76.0418 200° South 368 423 36,000  Level FlightAware ADS-B
02:36AM 37.7135 -76.0641 200° South 369 425 36,000  Level FlightAware ADS-B
02:37AM 37.6630 -76.0870 200° South 360 414 36,000  Level FlightAware
02:37AM 37.5970 -76.1180 200° South 360 414 36,000  Level FlightAware
02:38AM 37.5210 -76.1526 200° South 368 423 36,000  Level FlightAware ADS-B
02:39AM 37.4727 -76.1746 200° South 367 422 36,000  Level FlightAware ADS-B
02:39AM 37.4248 -76.1964 200° South 365 420 36,000  Level FlightAware ADS-B
02:40AM 37.3761 -76.2188 200° South 364 419 36,000  Level FlightAware ADS-B
02:40AM 37.3286 -76.2406 200° South 365 420 36,000  Level FlightAware ADS-B
02:41AM 37.2808 -76.2624 200° South 364 419 36,000  Level FlightAware ADS-B
02:41AM 37.2333 -76.2839 200° South 363 418 36,000  Level FlightAware ADS-B
02:42AM 37.1853 -76.3058 200° South 362 417 36,000  Level FlightAware ADS-B
02:42AM 37.1375 -76.3275 200° South 362 417 36,000  Level FlightAware ADS-B
02:43AM 37.0897 -76.3492 200° South 362 417 36,000  Level FlightAware ADS-B
02:43AM 37.0426 -76.3705 200° South 360 414 36,000  Level FlightAware ADS-B
02:44AM 36.9955 -76.3917 200° South 358 412 36,000  Level FlightAware ADS-B
02:44AM 36.9484 -76.4130 200° South 358 412 36,000  Level FlightAware ADS-B
02:45AM 36.8972 -76.4361 200° South 358 412 36,000  Level FlightAware ADS-B
02:46AM 36.8070 -76.4770 200° South 357 411 36,000  Level FlightAware
02:46AM 36.7836 -76.4873 199° South 355 409 36,000  Level FlightAware ADS-B
02:47AM 36.7340 -76.5090 199° South 355 409 36,000  Level FlightAware
02:47AM 36.6690 -76.5390 200° South 355 409 36,000  Level FlightAware
02:48AM 36.6160 -76.5630 200° South 355 409 36,000  Level FlightAware
02:49AM 36.5510 -76.5920 200° South 355 409 36,000  Level FlightAware
02:50AM 36.4980 -76.6160 200° South 355 409 36,000  Level FlightAware
02:50AM 36.4460 -76.6400 200° South 355 409 36,000  Level FlightAware
02:51AM 36.3930 -76.6640 200° South 355 409 36,000  Level FlightAware
02:52AM 36.3410 -76.6870 200° South 355 409 36,000  Level FlightAware
02:52AM 36.2880 -76.7110 200° South 355 409 36,000  Level FlightAware
02:53AM 36.2230 -76.7410 200° South 355 409 36,000  Level FlightAware
02:54AM 36.1700 -76.7640 199° South 355 409 36,000  Level FlightAware
02:54AM 36.1180 -76.7880 200° South 355 409 36,000  Level FlightAware
02:55AM 36.0650 -76.8120 200° South 355 409 36,000  Level FlightAware
02:56AM 36.0000 -76.8410 200° South 355 409 36,000  Level FlightAware
02:57AM 35.9470 -76.8650 200° South 355 409 36,000  Level FlightAware
02:57AM 35.7311 -76.9481 200° South 374 430 36,000 -60 Level Washington Center
02:58AM 35.6367 -76.9925 201° Southwest 368 423 35,900  Descending Washington Center
02:59AM 35.5464 -77.0344 201° Southwest 363 418 36,000  Climbing Washington Center
03:00AM 35.4500 -77.0761 199° South 363 418 36,000  Level Washington Center
03:01AM 35.3536 -77.1150 198° South 363 418 36,000  Level Washington Center
03:02AM 35.2569 -77.1589 200° South 369 425 36,000  Level Washington Center
03:03AM 35.1625 -77.1978 199° South 369 425 36,000  Level Washington Center
03:04AM 35.0681 -77.2389 200° South 369 425 36,000  Level Washington Center
03:05AM 34.9736 -77.2803 200° South 369 425 36,000  Level Washington Center
03:06AM 34.8769 -77.3211 199° South 369 425 36,000  Level Washington Center
03:07AM 34.7742 -77.3697 201° Southwest 363 418 36,000  Level Washington Center
03:08AM 34.6756 -77.4078 198° South 370 426 36,000  Level Washington Center
03:09AM 34.5767 -77.4511 200° South 370 426 36,000 -60 Level Washington Center
03:11AM 34.4097 -77.5069 195° South 366 421 35,900  Descending Jacksonville Center
03:12AM 34.3111 -77.5383 195° South 366 421 36,000  Climbing Jacksonville Center
03:13AM 34.2169 -77.5817 201° Southwest 371 427 36,000  Level Jacksonville Center
03:14AM 34.1333 -77.6244 203° Southwest 376 433 36,000  Level Jacksonville Center
03:15AM 34.0372 -77.6753 204° Southwest 376 433 36,000  Level Jacksonville Center
03:16AM 33.9475 -77.7258 205° Southwest 376 433 36,000  Level Jacksonville Center
03:17AM 33.8517 -77.7814 206° Southwest 377 434 36,000  Level Jacksonville Center
03:18AM 33.7597 -77.8292 203° Southwest 372 428 36,000  Level Jacksonville Center
03:19AM 33.6558 -77.8875 205° Southwest 380 437 36,000  Level Jacksonville Center
03:20AM 33.5719 -77.9347 205° Southwest 380 437 36,000  Level Jacksonville Center
03:21AM 33.4825 -77.9894 207° Southwest 374 430 36,000  Level Jacksonville Center
03:22AM 33.3906 -78.0394 204° Southwest 374 430 36,000 -60 Level Jacksonville Center
03:23AM 33.2919 -78.0794 199° South 374 430 35,900  Descending Jacksonville Center
03:24AM 33.1931 -78.1144 196° South 369 425 36,000  Climbing Jacksonville Center
03:25AM 33.0922 -78.1547 199° South 369 425 36,000  Level Jacksonville Center
03:26AM 32.9956 -78.1894 197° South 374 430 36,000 -60 Level Jacksonville Center
03:27AM 32.8947 -78.2294 198° South 379 436 35,900  Descending Jacksonville Center
03:28AM 32.7917 -78.2669 197° South 379 436 36,000  Climbing Jacksonville Center
03:29AM 32.6911 -78.3092 199° South 379 436 36,000 -60 Level Jacksonville Center
03:30AM 32.5881 -78.3464 197° South 379 436 35,900 -60 Descending Jacksonville Center
03:31AM 32.4850 -78.3833 197° South 379 436 35,900  Level Jacksonville Center
03:32AM 32.3839 -78.4206 197° South 379 436 35,900  Level Jacksonville Center
03:33AM 32.2831 -78.4622 199° South 379 436 36,000  Climbing Jacksonville Center
03:34AM 32.1761 -78.5042 198° South 385 443 36,000  Level Jacksonville Center
03:35AM 32.0711 -78.5436 198° South 391 450 36,000  Level Jacksonville Center
03:36AM 31.9681 -78.5828 198° South 391 450 36,000  Level Jacksonville Center
03:37AM 31.8647 -78.6194 197° South 397 457 36,000  Level Jacksonville Center
03:38AM 31.7597 -78.6583 197° South 397 457 36,000  Level Jacksonville Center
03:39AM 31.6547 -78.6997 199° South 397 457 36,000  Level Jacksonville Center
03:40AM 31.5514 -78.7336 196° South 397 457 36,000  Level Jacksonville Center
03:41AM 31.4442 -78.7775 199° South 397 457 36,000 -60 Level Jacksonville Center
03:42AM 31.3411 -78.8136 197° South 397 457 35,900  Descending Jacksonville Center
03:43AM 31.2358 -78.8522 197° South 397 457 36,000  Climbing Jacksonville Center
03:44AM 31.1306 -78.8908 197° South 397 457 36,000  Level Jacksonville Center
03:45AM 31.0108 -78.9344 197° South 397 457 36,000  Level Jacksonville Center
03:46AM 30.9078 -78.9728 198° South 402 463 36,000 -60 Level Jacksonville Center
03:47AM 30.8022 -79.0111 197° South 406 467 35,900  Descending Jacksonville Center
03:49AM 30.5356 -79.1067 197° South 394 453 36,000  Climbing Miami Center
03:50AM 30.4350 -79.1431 197° South 399 459 36,000  Level Miami Center
03:51AM 30.3261 -79.1839 198° South 404 465 36,000  Level Miami Center
03:52AM 30.2169 -79.2200 196° South 404 465 36,000  Level Miami Center
03:53AM 30.1081 -79.2608 198° South 409 471 36,000  Level Miami Center
03:54AM 30.0242 -79.2900 197° South 409 471 36,000  Level Miami Center
03:55AM 29.8958 -79.3422 199° South 402 463 36,000  Level Miami Center
03:56AM 29.7869 -79.3756 195° South 408 470 36,000  Level Miami Center
03:57AM 29.6883 -79.4164 200° South 408 470 36,000  Level Miami Center
03:58AM 29.5811 -79.4567 198° South 408 470 36,000  Level Miami Center
03:59AM 29.4719 -79.4947 197° South 413 475 36,000  Level Miami Center
04:00AM 29.3669 -79.5325 197° South 408 470 36,000  Level Miami Center
04:01AM 29.2558 -79.5656 195° South 408 470 36,000  Level Miami Center
04:02AM 29.1486 -79.6056 198° South 403 464 36,000  Level Miami Center
04:03AM 29.0417 -79.6408 196° South 403 464 36,000  Level Miami Center
04:04AM 28.9325 -79.6786 197° South 403 464 36,000  Level Miami Center
04:10AM 28.3200 -79.8900 197° South 409 471 36,000  Level FlightAware
04:11AM 28.2370 -79.9190 197° South 409 471 36,000  Level FlightAware
04:11AM 28.1680 -79.9430 197° South 409 471 36,000  Level FlightAware
04:12AM 28.1060 -79.9640 197° South 409 471 36,000  Level FlightAware
04:13AM 28.0320 -79.9890 197° South 409 471 36,000  Level FlightAware
04:13AM 27.9710 -80.0110 198° South 409 471 36,000  Level FlightAware
04:14AM 27.8940 -80.0370 197° South 409 471 36,000  Level FlightAware
04:15AM 27.8320 -80.0590 197° South 409 471 36,000  Level FlightAware
04:16AM 27.7710 -80.0800 197° South 409 471 36,000  Level FlightAware
04:16AM 27.7090 -80.1010 197° South 409 471 36,000  Level FlightAware
04:17AM 27.6480 -80.1220 197° South 409 471 36,000  Level FlightAware
04:18AM 27.5710 -80.1490 197° South 409 471 36,000  Level FlightAware
04:18AM 27.5090 -80.1700 197° South 409 471 36,000  Level FlightAware
04:19AM 27.4480 -80.1910 197° South 409 471 36,000  Level FlightAware
04:20AM 27.3860 -80.2120 197° South 409 471 36,000  Level FlightAware
04:20AM 27.1990 -80.2730 196° South 398 458 36,000  Level FlightAware
04:21AM 27.1130 -80.3020 197° South 397 457 36,000  Level FlightAware
04:22AM 27.0230 -80.3320 197° South 398 458 36,000  Level FlightAware
04:23AM 26.9590 -80.3540 197° South 391 450 36,000  Level FlightAware
04:24AM 26.8870 -80.3790 197° South 391 450 36,000  Level FlightAware
04:24AM 26.8010 -80.4070 196° South 390 449 36,000  Level FlightAware
04:25AM 26.6760 -80.4490 197° South 399 459 36,000  Level FlightAware
04:26AM 26.6090 -80.4720 197° South 401 461 36,000  Level FlightAware
04:27AM 26.5420 -80.4940 196° South 405 466 36,000  Level FlightAware
04:27AM 26.4600 -80.5210 196° South 407 468 36,000  Level FlightAware
04:28AM 26.3910 -80.5450 197° South 400 460 36,000  Level FlightAware
04:29AM 26.3030 -80.5730 196° South 404 465 36,000  Level FlightAware
04:30AM 26.2120 -80.6040 197° South 405 466 36,000  Level FlightAware
04:30AM 26.1420 -80.6270 196° South 407 468 36,000  Level FlightAware
04:31AM 26.0580 -80.6550 197° South 403 464 36,000  Level FlightAware
04:32AM 25.9820 -80.6800 196° South 408 470 36,000  Level FlightAware
04:32AM 25.9210 -80.7000 196° South 406 467 36,000  Level FlightAware
04:33AM 25.8300 -80.7300 197° South 395 455 36,000  Level FlightAware
04:34AM 25.7660 -80.7510 196° South 393 452 36,000  Level FlightAware
04:35AM 25.6780 -80.7800 197° South 393 452 36,000  Level FlightAware
04:35AM 25.6110 -80.8020 196° South 384 442 36,000  Level FlightAware
04:36AM 25.5460 -80.8240 197° South 384 442 36,000  Level FlightAware
04:37AM 25.4700 -80.8480 196° South 384 442 36,000  Level FlightAware
04:37AM 25.3930 -80.8740 197° South 386 444 36,000  Level FlightAware
04:38AM 25.3280 -80.8950 196° South 386 444 36,000  Level FlightAware
04:39AM 25.2520 -80.9200 197° South 391 450 36,000  Level FlightAware
04:39AM 25.1840 -80.9430 197° South 391 450 36,000  Level FlightAware
04:40AM 25.0980 -80.9730 198° South 391 450 36,000  Level FlightAware
04:41AM 25.0150 -81.0000 196° South 388 447 36,000  Level FlightAware
04:42AM 24.9140 -81.0340 197° South 388 447 36,000  Level FlightAware
04:43AM 24.8560 -81.0540 197° South 388 447 36,000  Level FlightAware
04:43AM 24.7980 -81.0740 197° South 388 447 36,000  Level FlightAware
04:44AM 24.7390 -81.0930 196° South 388 447 36,000  Level FlightAware
04:45AM 24.6660 -81.1180 197° South 388 447 36,000  Level FlightAware
04:45AM 24.6080 -81.1370 197° South 388 447 36,000  Level FlightAware
04:46AM 24.5500 -81.1570 197° South 388 447 36,000  Level FlightAware
04:47AM 24.4910 -81.1770 197° South 388 447 36,000  Level FlightAware
04:47AM 24.4330 -81.1960 197° South 388 447 36,000  Level FlightAware
04:48AM 24.3600 -81.2210 197° South 388 447 36,000  Level FlightAware
04:49AM 24.3020 -81.2400 197° South 388 447 36,000  Level FlightAware
04:50AM 24.2430 -81.2600 197° South 388 447 36,000  Level FlightAware
04:50AM 24.1850 -81.2790 197° South 388 447 36,000  Level FlightAware
04:51AM 24.1270 -81.2990 197° South 388 447 36,000 -13,500 Level FlightAware
04:51AM 24.0153 -81.3350 197° South 358 412 20,300 -11,820 Descending Miami Center
04:52AM 23.9247 -81.3636 196° South 347 399 18,700 -1,620 Descending Miami Center
04:53AM 23.8383 -81.3922 197° South 342 394 17,100 -1,560 Descending Miami Center
04:55AM 23.7340 -81.3788 173° South  Level FlightAware Approximate
05:02AM 23.1167 -81.3000 174° South  Level FlightAware Approximate
05:03AM 23.0615 -81.3907 174° South  Level Estimated
05:04AM 23.0345 -81.4353 174° South  Level Estimated
05:05AM 23.0344 -81.4353 174° South  Level Estimated
05:06AM 23.0345 -81.4353 174° South  Level Estimated
05:07AM 23.0344 -81.4353 174° South  Level Estimated
05:08AM 23.0345 -81.4353 174° South  Level Estimated
05:09AM 23.0344 -81.4353 174° South  Level Estimated
05:10AM 23.0345 -81.4353 174° South  Level Estimated
05:11AM 23.0344 -81.4353 174° South  Level Estimated
05:12AM 23.0345 -81.4353 174° South  Level Estimated
05:13AM 23.0344 -81.4353 174° South  Level Estimated
05:14AM 23.0345 -81.4353 174° South  Level Estimated
05:15AM 23.0344 -81.4353 174° South  Level Estimated
05:16AM 23.0345 -81.4353 174° South  Level Estimated
05:17AM 23.0344 -81.4353 174° South  Level Estimated
05:18AM 23.0345 -81.4353 174° South  Level Estimated
05:19AM 23.0344 -81.4353 174° South  Level Estimated
05:20AM 23.0345 -81.4353 174° South  Level Estimated